KTRI/TRI METAR and TAF weather

Enter ICAO airport designator
Station Type Date Time Source
KTRI METAR 2021/07/24 19:53 UTC NOAA

KTRI 241953Z 22010KT 10SM FEW045 SCT060 32/17 A3007 RMK AO2 SLP155 T03170172


Station Type Date Time Source
KTRI Decoded METAR 2021/07/24 19:53 UTC NOAA

TRI-CITY REGIONAL AIRPORT, TN, United States (KTRI) 36-28N 082-24W 474M
Jul 24, 2021 - 03:53 PM EDT / 2021.07.24 1953 UTC
Wind: from the SW (220 degrees) at 12 MPH (10 KT):0
Visibility: 10 mile(s):0
Sky conditions: partly cloudy
Temperature: 89.1 F (31.7 C)
Dew Point: 63.0 F (17.2 C)
Relative Humidity: 41%
Pressure (altimeter): 30.07 in. Hg (1018 hPa)
ob: KTRI 241953Z 22010KT 10SM FEW045 SCT060 32/17 A3007 RMK AO2 SLP155 T03170172
cycle: 20

Station Type Date Time Source
KTRI TAF 2021/07/24 18:58 UTC NOAA

TAF
AMD KTRI 241758Z 2418/2518 24008G14KT P6SM SCT040 SCT250
FM250000 VRB03KT P6SM SCT250
FM250800 00000KT 4SM BR FEW040 SCT250
FM251300 24005KT P6SM SCT040 SCT250

Example: see airport list